Westwood Rainier — C6SI3 — position and weather

sailwx.info

Track history (hours):
 
Tides and Currents Weather Stations Pressure Air Temp Water Temp Dewpoint Dewpoint Depression Visibility Wind Speed Wind Dir Waves Ship Positions

Westwood Rainier

Last reported at 2015-Mar-01 02:07 UTC. Time now 2015-Mar-01 02:57 UTC.
Position N 35°37' E 139°47'.

Type: Cargo ship. MMSI: 311348993.

Date/timePositionNaut miles runAvg speedWind from/ knotsBaromVisibWave heightAir tempDewpointWater temp
2015-Mar-01 02:07N 35°37' E 139°47'0 0.0
2015-Mar-01 00:13N 35°37' E 139°47'0 0.0
2015-Feb-28 22:07N 35°37' E 139°47'0 0.0
2015-Feb-28 21:31N 35°37' E 139°47'0 0.0
2015-Feb-28 19:31N 35°37' E 139°47'0 0.0
2015-Feb-28 18:16N 35°37' E 139°47'0 0.0
2015-Feb-28 17:22N 35°37' E 139°47'0 0.0
2015-Feb-28 16:10N 35°37' E 139°47'0 0.0
2015-Feb-28 15:28N 35°37' E 139°47'0 0.0
2015-Feb-28 11:10N 35°37' E 139°47'0 0.0
2015-Feb-28 03:04N 35°37' E 139°47'0 0.0
2015-Feb-28 02:16N 35°37' E 139°47'0 0.0
2015-Feb-28 01:04N 35°37' E 139°47'0 0.0
2015-Feb-28 00:28N 35°37' E 139°47'0 0.0
2015-Feb-27 23:22N 35°37' E 139°47'0 0.0
2015-Feb-27 15:16N 35°37' E 139°47'0 0.0
2015-Feb-27 14:22N 35°37' E 139°47'0 0.0
2015-Feb-27 13:22N 35°37' E 139°47'0 0.0
2015-Feb-27 11:33N 35°37' E 139°47'2 0.4
2015-Feb-27 06:29N 35°37' E 139°50'0 0.0
2015-Feb-27 05:11N 35°37' E 139°50'0 0.0
2015-Feb-27 04:29N 35°37' E 139°50'0 0.0
2015-Feb-27 03:23N 35°37' E 139°50'3 4.1
2015-Feb-27 02:34N 35°34' E 139°51'1212.4
2015-Feb-27 01:33N 35°22' E 139°45'1111.1
2015-Feb-27 00:34N 35°11' E 139°47'9 9.2
2015-Feb-26 23:33N 35°03' E 139°44'9 8.8
2015-Feb-26 22:33N 34°54' E 139°41'  
2015-Feb-22 23:00N 40°48' E 149°18'   220 / 401009.6 2.2 5.0 6.0 3.6
Track history (hours):
 
Tides and Currents Weather Stations Pressure Air Temp Water Temp Dewpoint Dewpoint Depression Visibility Wind Speed Wind Dir Waves Ship Positions

Westwood Rainier

Last reported at 2015-Mar-01 02:07 UTC. Time now 2015-Mar-01 02:57 UTC.
Position N 35°37' E 139°47'.

Type: Cargo ship. MMSI: 311348993.

Date/timePositionNaut miles runAvg speedWind from/ knotsBaromVisibWave heightAir tempDewpointWater temp
2015-Mar-01 02:07N 35°37' E 139°47'0 0.0
2015-Mar-01 00:13N 35°37' E 139°47'0 0.0
2015-Feb-28 22:07N 35°37' E 139°47'0 0.0
2015-Feb-28 21:31N 35°37' E 139°47'0 0.0
2015-Feb-28 19:31N 35°37' E 139°47'0 0.0
2015-Feb-28 18:16N 35°37' E 139°47'0 0.0
2015-Feb-28 17:22N 35°37' E 139°47'0 0.0
2015-Feb-28 16:10N 35°37' E 139°47'0 0.0
2015-Feb-28 15:28N 35°37' E 139°47'0 0.0
2015-Feb-28 11:10N 35°37' E 139°47'0 0.0
2015-Feb-28 03:04N 35°37' E 139°47'0 0.0
2015-Feb-28 02:16N 35°37' E 139°47'0 0.0
2015-Feb-28 01:04N 35°37' E 139°47'0 0.0
2015-Feb-28 00:28N 35°37' E 139°47'0 0.0
2015-Feb-27 23:22N 35°37' E 139°47'0 0.0
2015-Feb-27 15:16N 35°37' E 139°47'0 0.0
2015-Feb-27 14:22N 35°37' E 139°47'0 0.0
2015-Feb-27 13:22N 35°37' E 139°47'0 0.0
2015-Feb-27 11:33N 35°37' E 139°47'2 0.4
2015-Feb-27 06:29N 35°37' E 139°50'0 0.0
2015-Feb-27 05:11N 35°37' E 139°50'0 0.0
2015-Feb-27 04:29N 35°37' E 139°50'0 0.0
2015-Feb-27 03:23N 35°37' E 139°50'3 4.1
2015-Feb-27 02:34N 35°34' E 139°51'1212.4
2015-Feb-27 01:33N 35°22' E 139°45'1111.1
2015-Feb-27 00:34N 35°11' E 139°47'9 9.2
2015-Feb-26 23:33N 35°03' E 139°44'9 8.8
2015-Feb-26 22:33N 34°54' E 139°41'  
2015-Feb-22 23:00N 40°48' E 149°18'   220 / 401009.6 2.2 5.0 6.0 3.6

Dump ship's entire track history